createdAt,value
2019-02-05T00:01:29.068Z,-0.40
2019-02-05T00:03:07.016Z,-0.50
2019-02-05T00:04:41.514Z,-0.50
2019-02-05T00:06:15.955Z,-0.50
2019-02-05T00:07:50.309Z,-0.50
2019-02-05T00:09:24.700Z,-0.40
2019-02-05T00:10:59.064Z,-0.50
2019-02-05T00:12:33.497Z,-0.50
2019-02-05T00:14:07.852Z,-0.40
2019-02-05T00:15:42.247Z,-0.40
2019-02-05T00:17:16.611Z,-0.50
2019-02-05T00:18:51.688Z,-0.50
2019-02-05T00:20:27.657Z,-0.60
2019-02-05T00:22:02.049Z,-0.60
2019-02-05T00:23:36.405Z,-0.60
2019-02-05T00:25:10.781Z,-0.50
2019-02-05T00:26:45.137Z,-0.60
2019-02-05T00:28:19.456Z,-0.60
2019-02-05T00:29:53.881Z,-0.60
2019-02-05T00:31:28.249Z,-0.60
2019-02-05T00:33:04.297Z,-0.60
2019-02-05T00:34:38.669Z,-0.60
2019-02-05T00:36:13.065Z,-0.60
2019-02-05T00:37:47.432Z,-0.60
2019-02-05T00:39:21.789Z,-0.60
2019-02-05T00:40:56.173Z,-0.60
2019-02-05T00:42:30.567Z,-0.60
2019-02-05T00:44:04.935Z,-0.60
2019-02-05T00:45:39.491Z,-0.60
2019-02-05T00:47:13.845Z,-0.70
2019-02-05T00:48:48.233Z,-0.70
2019-02-05T00:50:22.599Z,-0.60
2019-02-05T00:51:58.469Z,-0.60
2019-02-05T00:53:32.830Z,-0.60
2019-02-05T00:55:10.697Z,-0.50
2019-02-05T00:56:45.056Z,-0.50
2019-02-05T00:58:19.419Z,-0.60
2019-02-05T00:59:54.014Z,-0.50
2019-02-05T01:01:28.381Z,-0.60
2019-02-05T01:03:02.777Z,-0.60
2019-02-05T01:04:37.177Z,-0.60
2019-02-05T01:06:11.556Z,-0.60
2019-02-05T01:07:45.996Z,-0.60
2019-02-05T01:09:20.477Z,-0.60
2019-02-05T01:10:56.640Z,-0.60
2019-02-05T01:12:31.038Z,-0.60
2019-02-05T01:14:05.403Z,-0.60
2019-02-05T01:15:39.761Z,-0.60
2019-02-05T01:17:14.124Z,-0.60
2019-02-05T01:18:48.520Z,-0.50
2019-02-05T01:20:23.291Z,-0.50
2019-02-05T01:21:57.661Z,-0.50
2019-02-05T01:23:32.216Z,-0.50
2019-02-05T01:25:08.246Z,-0.50
2019-02-05T01:26:42.707Z,-0.50
2019-02-05T01:28:17.065Z,-0.60
2019-02-05T01:29:52.940Z,-0.50
2019-02-05T01:31:27.706Z,-0.50
2019-02-05T01:33:02.074Z,-0.60
2019-02-05T01:34:36.445Z,-0.60
2019-02-05T01:36:12.323Z,-0.50
2019-02-05T01:37:46.685Z,-0.50
2019-02-05T01:39:21.074Z,-0.60
2019-02-05T01:40:55.433Z,-0.60
2019-02-05T01:42:29.800Z,-0.60
2019-02-05T01:44:04.612Z,-0.60
2019-02-05T01:45:38.986Z,-0.60
2019-02-05T01:47:13.349Z,-0.60
2019-02-05T01:48:47.712Z,-0.60
2019-02-05T01:50:24.676Z,-0.60
2019-02-05T01:51:59.061Z,-0.60
2019-02-05T01:53:33.416Z,-0.50
2019-02-05T01:55:10.013Z,-0.60
2019-02-05T01:56:44.675Z,-0.50
2019-02-05T01:58:19.074Z,-0.50
2019-02-05T01:59:53.428Z,-0.50
2019-02-05T02:01:27.856Z,-0.60
2019-02-05T02:03:02.295Z,-0.60
2019-02-05T02:04:36.696Z,-0.50
2019-02-05T02:06:30.499Z,-0.50
2019-02-05T02:08:04.981Z,-0.60
2019-02-05T02:09:39.357Z,-0.50
2019-02-05T02:11:13.714Z,-0.50
2019-02-05T02:12:48.476Z,-0.50
2019-02-05T02:14:22.860Z,-0.50
2019-02-05T02:15:57.385Z,-0.50
2019-02-05T02:17:31.748Z,-0.50
2019-02-05T02:19:06.245Z,-0.50
2019-02-05T02:20:40.674Z,-0.60
2019-02-05T02:22:15.069Z,-0.60
2019-02-05T02:23:49.435Z,-0.60
2019-02-05T02:25:23.805Z,-0.60
2019-02-05T02:26:58.233Z,-0.50
2019-02-05T02:28:32.619Z,-0.60
2019-02-05T02:30:21.994Z,-0.50
2019-02-05T02:31:56.363Z,-0.60
2019-02-05T02:33:31.019Z,-0.60
2019-02-05T02:35:06.080Z,-0.60
2019-02-05T02:36:40.437Z,-0.60
2019-02-05T02:38:14.803Z,-0.70
2019-02-05T02:39:49.241Z,-0.80
2019-02-05T02:41:23.605Z,-0.70
2019-02-05T02:42:57.966Z,-0.70
2019-02-05T02:44:32.337Z,-0.70
2019-02-05T02:46:07.203Z,-0.70
2019-02-05T02:47:41.636Z,-0.70
2019-02-05T02:49:16.012Z,-0.70
2019-02-05T02:50:50.378Z,-0.80
2019-02-05T02:52:24.738Z,-0.80
2019-02-05T02:53:59.122Z,-0.70
2019-02-05T02:55:33.476Z,-0.80
2019-02-05T02:57:07.846Z,-0.70
2019-02-05T02:58:42.215Z,-0.80
2019-02-05T03:00:18.846Z,-0.80
2019-02-05T03:01:53.203Z,-0.80
2019-02-05T03:03:27.865Z,-0.80
2019-02-05T03:05:02.258Z,-0.70
2019-02-05T03:06:36.682Z,-0.70
2019-02-05T03:08:12.577Z,-0.70
2019-02-05T03:09:46.937Z,-0.70
2019-02-05T03:11:21.321Z,-0.80
2019-02-05T03:12:57.535Z,-0.80
2019-02-05T03:14:31.909Z,-0.80
2019-02-05T03:16:06.572Z,-0.80
2019-02-05T03:17:41.050Z,-0.70
2019-02-05T03:19:15.410Z,-0.70
2019-02-05T03:20:50.077Z,-0.80
2019-02-05T03:22:24.445Z,-0.80
2019-02-05T03:23:58.805Z,-0.80
2019-02-05T03:25:33.188Z,-0.80
2019-02-05T03:27:17.210Z,-0.70
2019-02-05T03:28:43.597Z,-0.80
2019-02-05T03:30:20.536Z,-0.80
2019-02-05T03:31:54.911Z,-0.80
2019-02-05T03:33:29.268Z,-0.80
2019-02-05T03:35:05.063Z,-0.80
2019-02-05T03:36:39.913Z,-0.80
2019-02-05T03:38:14.579Z,-0.80
2019-02-05T03:39:48.956Z,-0.70
2019-02-05T03:41:23.310Z,-0.70
2019-02-05T03:42:57.744Z,-0.70
2019-02-05T03:44:32.097Z,-0.80
2019-02-05T03:46:06.466Z,-0.80
2019-02-05T03:47:40.849Z,-0.80
2019-02-05T03:49:15.251Z,-0.80
2019-02-05T03:50:51.665Z,-0.70
2019-02-05T03:52:26.965Z,-0.70
2019-02-05T03:54:28.174Z,-0.70
2019-02-05T03:56:05.794Z,-0.70
2019-02-05T03:57:49.402Z,-0.70
2019-02-05T03:59:29.981Z,-0.60
2019-02-05T04:01:13.349Z,-0.70
2019-02-05T04:02:53.826Z,-0.70
2019-02-05T04:04:31.445Z,-0.70
2019-02-05T04:06:24.345Z,-0.60
2019-02-05T04:08:18.302Z,-0.60
2019-02-05T04:10:01.687Z,-0.60
2019-02-05T04:12:01.699Z,-0.60
2019-02-05T04:13:47.336Z,-0.60
2019-02-05T04:15:36.818Z,-0.50
2019-02-05T04:17:23.696Z,-0.60
2019-02-05T04:19:10.069Z,-0.50
2019-02-05T04:20:53.459Z,-0.60
2019-02-05T04:22:52.528Z,-0.60
2019-02-05T04:24:53.216Z,-0.60
2019-02-05T04:26:33.788Z,-0.60
2019-02-05T04:28:19.863Z,-0.60
2019-02-05T04:30:00.088Z,-0.60
2019-02-05T04:31:43.188Z,-0.60
2019-02-05T04:33:37.473Z,-0.60
2019-02-05T04:35:20.607Z,-0.70
2019-02-05T04:37:06.917Z,-0.70
2019-02-05T04:38:47.250Z,-0.70
2019-02-05T04:40:30.688Z,-0.70
2019-02-05T04:42:23.105Z,-0.70
2019-02-05T04:44:15.793Z,-0.70
2019-02-05T04:45:56.128Z,-0.70
2019-02-05T04:47:36.821Z,-0.80
2019-02-05T04:49:46.046Z,-0.70
2019-02-05T04:51:41.424Z,-0.70
2019-02-05T04:53:24.942Z,-0.70
2019-02-05T04:55:14.738Z,-0.80
2019-02-05T04:57:07.199Z,-0.80
2019-02-05T04:58:47.759Z,-0.70
2019-02-05T05:00:40.027Z,-0.80
2019-02-05T05:02:47.225Z,-0.80
2019-02-05T05:04:27.568Z,-0.80
2019-02-05T05:06:23.571Z,-0.70
2019-02-05T05:08:06.925Z,-0.70
2019-02-05T05:09:58.146Z,-0.70
2019-02-05T05:11:32.501Z,-0.80
2019-02-05T05:13:06.872Z,-0.70
2019-02-05T05:14:41.238Z,-0.70
2019-02-05T05:16:15.645Z,-0.70
2019-02-05T05:17:49.997Z,-0.70
2019-02-05T05:19:24.373Z,-0.70
2019-02-05T05:20:58.734Z,-0.70
2019-02-05T05:22:33.125Z,-0.70
2019-02-05T05:24:07.492Z,-0.70
2019-02-05T05:25:41.854Z,-0.70
2019-02-05T05:27:17.052Z,-0.70
2019-02-05T05:28:51.762Z,-0.70
2019-02-05T05:30:26.116Z,-0.70
2019-02-05T05:32:00.474Z,-0.70
2019-02-05T05:33:34.834Z,-0.70
2019-02-05T05:35:09.974Z,-0.70
2019-02-05T05:36:49.299Z,-0.70
2019-02-05T05:38:23.653Z,-0.70
2019-02-05T05:39:58.015Z,-0.70
2019-02-05T05:41:32.685Z,-0.70
2019-02-05T05:43:08.165Z,-0.70
2019-02-05T05:44:42.624Z,-0.70
2019-02-05T05:46:17.498Z,-0.70
2019-02-05T05:47:51.861Z,-0.70
2019-02-05T05:49:26.249Z,-0.70
2019-02-05T05:51:00.630Z,-0.70
2019-02-05T05:52:34.989Z,-0.70
2019-02-05T05:54:09.364Z,-0.80
2019-02-05T05:55:43.760Z,-0.80
2019-02-05T05:57:18.753Z,-0.80
2019-02-05T05:58:55.013Z,-0.80
2019-02-05T06:00:29.750Z,-0.80
2019-02-05T06:02:04.192Z,-0.90
2019-02-05T06:03:38.593Z,-0.80
2019-02-05T06:05:14.203Z,-0.90
2019-02-05T06:06:50.109Z,-0.90
2019-02-05T06:08:24.484Z,-0.90
2019-02-05T06:09:58.849Z,-0.90
2019-02-05T06:11:33.519Z,-0.90
2019-02-05T06:13:07.901Z,-0.90
2019-02-05T06:14:42.272Z,-0.90
2019-02-05T06:16:16.633Z,-0.80
2019-02-05T06:17:51.073Z,-0.80
2019-02-05T06:19:25.532Z,-0.80
2019-02-05T06:21:01.507Z,-0.80
2019-02-05T06:22:35.881Z,-0.80
2019-02-05T06:24:11.763Z,-0.80
2019-02-05T06:25:46.126Z,-0.80
2019-02-05T06:27:20.493Z,-0.80
2019-02-05T06:28:55.272Z,-0.80
2019-02-05T06:30:29.631Z,-0.80
2019-02-05T06:32:03.994Z,-0.80
2019-02-05T06:33:38.375Z,-0.80
2019-02-05T06:35:13.001Z,-0.80
2019-02-05T06:36:47.413Z,-0.70
2019-02-05T06:38:21.769Z,-0.80
2019-02-05T06:39:56.142Z,-0.80
2019-02-05T06:41:30.514Z,-0.80
2019-02-05T06:43:04.895Z,-0.80
2019-02-05T06:44:39.261Z,-0.80
2019-02-05T06:46:14.113Z,-0.80
2019-02-05T06:47:48.469Z,-0.80
2019-02-05T06:49:22.841Z,-0.80
2019-02-05T06:50:57.413Z,-0.80
2019-02-05T06:52:31.776Z,-0.80
2019-02-05T06:54:06.137Z,-0.80
2019-02-05T06:55:40.505Z,-0.70
2019-02-05T06:57:14.869Z,-0.70
2019-02-05T06:58:49.236Z,-0.70
2019-02-05T07:00:24.198Z,-0.70
2019-02-05T07:01:58.584Z,-0.70
2019-02-05T07:03:33.259Z,-0.70
2019-02-05T07:05:11.667Z,-0.80
2019-02-05T07:06:46.046Z,-0.80
2019-02-05T07:08:20.501Z,-0.80
2019-02-05T07:09:54.861Z,-0.80
2019-02-05T07:11:29.220Z,-0.80
2019-02-05T07:13:03.604Z,-0.70
2019-02-05T07:14:38.001Z,-0.80
2019-02-05T07:16:12.691Z,-0.80
2019-02-05T07:17:49.698Z,-0.80
2019-02-05T07:19:24.654Z,-0.70
2019-02-05T07:20:59.044Z,-0.60
2019-02-05T07:22:34.917Z,-0.60
2019-02-05T07:24:09.294Z,-0.60
2019-02-05T07:25:43.701Z,-0.60
2019-02-05T07:27:19.616Z,-0.60
2019-02-05T07:28:58.443Z,-0.60
2019-02-05T07:30:30.368Z,-0.60
2019-02-05T07:32:04.733Z,-0.60
2019-02-05T07:33:39.162Z,-0.60
2019-02-05T07:35:14.145Z,-0.60
2019-02-05T07:36:48.518Z,-0.50
2019-02-05T07:38:22.966Z,-0.50
2019-02-05T07:39:57.326Z,-0.50
2019-02-05T07:41:32.717Z,-0.50
2019-02-05T07:43:07.074Z,-0.40
2019-02-05T07:44:41.501Z,-0.40
2019-02-05T07:46:15.901Z,-0.40
2019-02-05T07:47:50.346Z,-0.40
2019-02-05T07:49:24.709Z,-0.40
2019-02-05T07:51:00.781Z,-0.40
2019-02-05T07:52:35.177Z,-0.30
2019-02-05T07:54:09.539Z,-0.40
2019-02-05T07:55:44.133Z,-0.40
2019-02-05T07:57:18.505Z,-0.30
2019-02-05T07:58:52.910Z,-0.30
2019-02-05T08:00:28.842Z,-0.30
2019-02-05T08:02:03.221Z,-0.30
2019-02-05T08:03:37.654Z,-0.30
2019-02-05T08:05:20.748Z,-0.30
2019-02-05T08:06:55.125Z,-0.30
2019-02-05T08:08:29.696Z,-0.20
2019-02-05T08:10:06.644Z,-0.20
2019-02-05T08:11:41.517Z,-0.20
2019-02-05T08:13:16.012Z,-0.10
2019-02-05T08:14:50.369Z,-0.10
2019-02-05T08:16:24.730Z,-0.10
2019-02-05T08:17:59.112Z,-0.10
2019-02-05T08:19:33.480Z,-0.10
2019-02-05T08:21:07.851Z,-0.20
2019-02-05T08:22:42.211Z,0.00
2019-02-05T08:24:16.652Z,0.00
2019-02-05T08:25:51.033Z,0.10
2019-02-05T08:27:25.437Z,0.10
2019-02-05T08:28:59.957Z,0.20
2019-02-05T08:30:43.760Z,0.20
2019-02-05T08:32:18.209Z,0.10
2019-02-05T08:33:52.590Z,0.10
2019-02-05T08:35:27.139Z,0.10
2019-02-05T08:37:01.485Z,0.10
2019-02-05T08:38:35.849Z,0.10
2019-02-05T08:40:18.837Z,0.20
2019-02-05T08:41:53.270Z,0.20
2019-02-05T08:43:27.625Z,0.20
2019-02-05T08:45:01.992Z,0.20
2019-02-05T08:46:36.349Z,0.10
2019-02-05T08:48:12.440Z,0.30
2019-02-05T08:49:46.792Z,0.30
2019-02-05T08:51:21.165Z,0.40
2019-02-05T08:52:55.520Z,0.40
2019-02-05T08:54:29.880Z,0.40
2019-02-05T08:56:04.557Z,0.40
2019-02-05T08:57:38.921Z,0.50
2019-02-05T08:59:13.264Z,0.60
2019-02-05T09:00:47.662Z,0.60
2019-02-05T09:02:22.040Z,0.60
2019-02-05T09:03:56.412Z,0.60
2019-02-05T09:05:30.776Z,0.70
2019-02-05T09:07:25.291Z,0.70
2019-02-05T09:08:50.356Z,0.80
2019-02-05T09:10:38.963Z,0.80
2019-02-05T09:12:13.524Z,0.80
2019-02-05T09:13:47.877Z,0.80
2019-02-05T09:15:29.051Z,0.90
2019-02-05T09:16:58.214Z,1.00
2019-02-05T09:18:32.569Z,1.10
2019-02-05T09:20:12.902Z,1.00
2019-02-05T09:21:47.353Z,0.90
2019-02-05T09:23:23.223Z,1.00
2019-02-05T09:24:57.573Z,1.10
2019-02-05T09:26:31.925Z,1.00
2019-02-05T09:28:06.289Z,1.00
2019-02-05T09:29:40.929Z,1.00
2019-02-05T09:31:15.332Z,0.90
2019-02-05T09:32:51.045Z,0.90
2019-02-05T09:34:25.388Z,1.00
2019-02-05T09:35:59.743Z,1.10
2019-02-05T09:37:35.197Z,1.20
2019-02-05T09:39:09.557Z,1.30
2019-02-05T09:40:43.921Z,1.10
2019-02-05T09:42:18.469Z,1.20
2019-02-05T09:43:52.834Z,1.10
2019-02-05T09:45:28.699Z,1.10
2019-02-05T09:47:03.280Z,1.10
2019-02-05T09:48:37.704Z,1.20
2019-02-05T09:50:16.625Z,1.20
2019-02-05T09:51:51.020Z,1.10
2019-02-05T09:53:25.352Z,1.20
2019-02-05T09:54:59.700Z,1.10
2019-02-05T09:56:34.060Z,1.10
2019-02-05T09:58:08.509Z,1.10
2019-02-05T09:59:45.413Z,1.10
2019-02-05T10:01:19.258Z,1.10
2019-02-05T10:02:53.616Z,1.10
2019-02-05T10:04:28.053Z,1.20
2019-02-05T10:06:02.462Z,1.10
2019-02-05T10:07:36.829Z,1.20
2019-02-05T10:09:11.181Z,1.30
2019-02-05T10:10:45.605Z,1.30
2019-02-05T10:12:19.957Z,1.20
2019-02-05T10:13:54.394Z,1.30
2019-02-05T10:15:33.752Z,1.30
2019-02-05T10:17:08.336Z,1.50
2019-02-05T10:18:45.752Z,1.60
2019-02-05T10:20:18.785Z,1.80
2019-02-05T10:21:53.177Z,2.00
2019-02-05T10:23:27.809Z,1.90
2019-02-05T10:25:02.164Z,2.00
2019-02-05T10:26:36.553Z,2.00
2019-02-05T10:28:12.668Z,2.10
2019-02-05T10:29:57.694Z,2.10
2019-02-05T10:31:22.873Z,2.10
2019-02-05T10:32:57.303Z,2.10
2019-02-05T10:34:34.275Z,1.90
2019-02-05T10:36:07.796Z,1.80
2019-02-05T10:37:42.152Z,1.80
2019-02-05T10:39:16.707Z,1.70
2019-02-05T10:40:52.576Z,1.90
2019-02-05T10:42:27.297Z,1.70
2019-02-05T10:44:01.662Z,1.60
2019-02-05T10:45:36.153Z,1.50
2019-02-05T10:47:10.809Z,1.60
2019-02-05T10:48:45.173Z,1.70
2019-02-05T10:50:21.106Z,1.60
2019-02-05T10:51:55.496Z,1.60
2019-02-05T10:53:29.922Z,1.60
2019-02-05T10:55:08.898Z,1.50
2019-02-05T10:56:43.248Z,1.60
2019-02-05T10:58:17.636Z,1.50
2019-02-05T10:59:54.337Z,1.50
2019-02-05T11:01:28.284Z,1.60
2019-02-05T11:03:05.161Z,1.50
2019-02-05T11:04:39.706Z,1.40
2019-02-05T11:06:14.049Z,1.40
2019-02-05T11:07:48.404Z,1.50
2019-02-05T11:09:22.765Z,1.70
2019-02-05T11:10:57.144Z,1.70
2019-02-05T11:12:31.510Z,1.60
2019-02-05T11:14:05.853Z,1.80
2019-02-05T11:15:40.219Z,1.90
2019-02-05T11:17:14.866Z,2.00
2019-02-05T11:18:50.757Z,2.00
2019-02-05T11:20:26.753Z,2.10
2019-02-05T11:22:01.121Z,2.10
2019-02-05T11:23:35.476Z,2.00
2019-02-05T11:25:09.902Z,2.30
2019-02-05T11:26:44.257Z,2.20
2019-02-05T11:28:18.616Z,2.40
2019-02-05T11:29:52.965Z,2.80
2019-02-05T11:31:27.432Z,3.20
2019-02-05T11:33:01.793Z,3.30
2019-02-05T11:34:36.549Z,3.60
2019-02-05T11:36:10.901Z,3.80
2019-02-05T11:37:45.285Z,4.00
2019-02-05T11:39:19.633Z,3.70
2019-02-05T11:40:54.169Z,3.20
2019-02-05T11:42:28.520Z,2.90
2019-02-05T11:44:04.854Z,2.50
2019-02-05T11:45:38.885Z,2.90
2019-02-05T11:47:13.241Z,3.10
2019-02-05T11:48:47.602Z,3.10
2019-02-05T11:50:23.660Z,3.60
2019-02-05T11:51:58.418Z,4.20
2019-02-05T11:53:32.940Z,4.40
2019-02-05T11:55:10.393Z,4.50
2019-02-05T11:56:44.816Z,4.30
2019-02-05T11:58:19.159Z,4.50
2019-02-05T11:59:53.513Z,4.20
2019-02-05T12:01:38.327Z,4.30
2019-02-05T12:03:05.021Z,4.10
2019-02-05T12:04:39.687Z,4.00
2019-02-05T12:06:14.032Z,4.10
2019-02-05T12:07:48.396Z,4.20
2019-02-05T12:09:23.322Z,4.00
2019-02-05T12:10:57.680Z,4.20
2019-02-05T12:12:32.082Z,4.20
2019-02-05T12:14:06.444Z,4.10
2019-02-05T12:15:40.805Z,4.10
2019-02-05T12:17:15.172Z,4.00
2019-02-05T12:18:49.521Z,4.00
2019-02-05T12:20:23.920Z,4.10
2019-02-05T12:21:59.909Z,3.90
2019-02-05T12:23:34.273Z,3.70
2019-02-05T12:25:20.413Z,3.80
2019-02-05T12:26:54.793Z,4.00
2019-02-05T12:28:29.314Z,4.10
2019-02-05T12:30:05.572Z,4.00
2019-02-05T12:31:39.939Z,4.10
2019-02-05T12:33:14.290Z,4.20
2019-02-05T12:34:48.962Z,4.20
2019-02-05T12:36:23.450Z,4.50
2019-02-05T12:37:57.818Z,4.60
2019-02-05T12:39:32.301Z,4.20
2019-02-05T12:41:06.653Z,4.40
2019-02-05T12:42:41.073Z,4.30
2019-02-05T12:44:15.545Z,4.20
2019-02-05T12:45:50.382Z,4.50
2019-02-05T12:47:24.800Z,4.70
2019-02-05T12:48:59.165Z,4.60
2019-02-05T12:50:36.157Z,4.50
2019-02-05T12:52:10.813Z,4.50
2019-02-05T12:53:45.192Z,4.30
2019-02-05T12:55:19.537Z,4.00
2019-02-05T12:56:53.897Z,4.10
2019-02-05T12:58:31.293Z,4.10
2019-02-05T13:00:26.627Z,4.20
2019-02-05T13:02:01.041Z,4.10
2019-02-05T13:03:35.394Z,4.10
2019-02-05T13:05:09.820Z,4.00
2019-02-05T13:06:45.713Z,3.90
2019-02-05T13:08:20.006Z,3.90
2019-02-05T13:09:57.510Z,3.90
2019-02-05T13:11:31.879Z,3.80
2019-02-05T13:13:07.197Z,3.90
2019-02-05T13:14:41.561Z,3.90
2019-02-05T13:16:16.313Z,3.80
2019-02-05T13:17:50.669Z,3.80
2019-02-05T13:19:25.045Z,3.90
2019-02-05T13:20:59.405Z,3.70
2019-02-05T13:22:33.770Z,3.70
2019-02-05T13:24:08.132Z,3.70
2019-02-05T13:25:42.520Z,3.80
2019-02-05T13:27:16.947Z,3.80
2019-02-05T13:28:51.316Z,3.60
2019-02-05T13:30:27.680Z,3.60
2019-02-05T13:32:02.124Z,3.60
2019-02-05T13:33:36.514Z,3.70
2019-02-05T13:35:11.332Z,3.60
2019-02-05T13:36:45.691Z,3.60
2019-02-05T13:38:20.043Z,3.60
2019-02-05T13:39:54.412Z,3.60
2019-02-05T13:41:29.353Z,3.60
2019-02-05T13:43:03.973Z,3.60
2019-02-05T13:44:38.329Z,3.60
2019-02-05T13:46:14.332Z,3.50
2019-02-05T13:47:48.689Z,3.50
2019-02-05T13:49:23.081Z,3.40
2019-02-05T13:50:57.442Z,3.40
2019-02-05T13:52:31.730Z,3.40
2019-02-05T13:54:07.241Z,3.40
2019-02-05T13:55:42.440Z,3.40
2019-02-05T13:57:16.901Z,3.40
2019-02-05T13:58:51.257Z,3.40
2019-02-05T14:00:40.269Z,3.40
2019-02-05T14:02:16.457Z,3.40
2019-02-05T14:03:50.813Z,3.30
2019-02-05T14:05:25.169Z,3.20
2019-02-05T14:06:59.532Z,3.20
2019-02-05T14:08:33.920Z,3.10
2019-02-05T14:10:14.061Z,3.10
2019-02-05T14:11:48.420Z,3.10
2019-02-05T14:13:22.789Z,3.10
2019-02-05T14:14:57.146Z,3.00
2019-02-05T14:16:31.505Z,3.00
2019-02-05T14:18:06.534Z,3.00
2019-02-05T14:19:40.912Z,3.00
2019-02-05T14:21:15.270Z,2.90
2019-02-05T14:22:49.625Z,2.90
2019-02-05T14:24:24.018Z,2.80
2019-02-05T14:25:59.703Z,2.90
2019-02-05T14:27:35.692Z,2.80
2019-02-05T14:29:10.045Z,2.80
2019-02-05T14:30:49.828Z,2.80
2019-02-05T14:32:24.182Z,2.80
2019-02-05T14:33:58.573Z,2.80
2019-02-05T14:35:32.948Z,2.70
2019-02-05T14:37:07.321Z,2.70
2019-02-05T14:38:41.664Z,2.70
2019-02-05T14:40:20.478Z,2.70
2019-02-05T14:41:54.840Z,2.70
2019-02-05T14:43:30.705Z,2.60
2019-02-05T14:45:08.494Z,2.60
2019-02-05T14:46:43.308Z,2.70
2019-02-05T14:48:19.484Z,2.60
2019-02-05T14:49:53.765Z,2.60
2019-02-05T14:51:28.129Z,2.50
2019-02-05T14:53:02.608Z,2.50
2019-02-05T14:54:36.956Z,2.40
2019-02-05T14:56:11.369Z,2.30
2019-02-05T14:57:45.646Z,2.30
2019-02-05T14:59:20.037Z,2.20
2019-02-05T15:00:54.598Z,2.20
2019-02-05T15:02:28.951Z,2.20
2019-02-05T15:04:05.378Z,2.10
2019-02-05T15:05:40.158Z,2.00
2019-02-05T15:07:14.555Z,2.00
2019-02-05T15:08:48.913Z,2.00
2019-02-05T15:10:23.271Z,1.90
2019-02-05T15:11:57.653Z,1.80
2019-02-05T15:13:32.209Z,1.80
2019-02-05T15:15:09.828Z,1.70
2019-02-05T15:16:44.168Z,1.70
2019-02-05T15:18:18.480Z,1.60
2019-02-05T15:19:52.829Z,1.60
2019-02-05T15:21:27.135Z,1.60
2019-02-05T15:23:01.662Z,1.50
2019-02-05T15:24:38.050Z,1.50
2019-02-05T15:26:11.996Z,1.40
2019-02-05T15:27:46.365Z,1.40
2019-02-05T15:29:20.727Z,1.40
2019-02-05T15:30:55.081Z,1.30
2019-02-05T15:32:49.365Z,1.20
2019-02-05T15:34:25.233Z,1.20
2019-02-05T15:36:04.277Z,1.10
2019-02-05T15:37:38.732Z,1.00
2019-02-05T15:39:13.153Z,0.90
2019-02-05T15:40:47.505Z,0.80
2019-02-05T15:42:21.864Z,0.80
2019-02-05T15:44:00.522Z,0.70
2019-02-05T15:45:33.777Z,0.70
2019-02-05T15:47:08.130Z,0.60
2019-02-05T15:48:42.493Z,0.50
2019-02-05T15:50:16.849Z,0.40
2019-02-05T15:51:51.210Z,0.40
2019-02-05T15:53:25.566Z,0.30
2019-02-05T15:54:59.955Z,0.20
2019-02-05T15:56:34.313Z,0.20
2019-02-05T15:58:10.180Z,0.10
2019-02-05T15:59:44.541Z,0.00
2019-02-05T16:01:20.480Z,0.00
2019-02-05T16:02:54.833Z,-0.10
2019-02-05T16:04:29.212Z,-0.10
2019-02-05T16:06:03.575Z,-0.10
2019-02-05T16:07:37.969Z,-0.20
2019-02-05T16:09:12.345Z,-0.30
2019-02-05T16:10:46.739Z,-0.30
2019-02-05T16:12:21.754Z,-0.30
2019-02-05T16:13:56.263Z,-0.30
2019-02-05T16:15:31.121Z,-0.40
2019-02-05T16:17:05.519Z,-0.40
2019-02-05T16:18:39.877Z,-0.50
2019-02-05T16:20:18.049Z,-0.50
2019-02-05T16:21:52.421Z,-0.60
2019-02-05T16:23:26.827Z,-0.60
2019-02-05T16:25:01.191Z,-0.70
2019-02-05T16:26:35.569Z,-0.70
2019-02-05T16:28:10.145Z,-0.80
2019-02-05T16:29:44.516Z,-0.80
2019-02-05T16:31:18.881Z,-0.90
2019-02-05T16:32:53.291Z,-0.90
2019-02-05T16:34:28.126Z,-0.90
2019-02-05T16:36:02.484Z,-1.00
2019-02-05T16:37:36.852Z,-1.00
2019-02-05T16:39:11.321Z,-1.00
2019-02-05T16:40:46.273Z,-1.10
2019-02-05T16:42:20.644Z,-1.10
2019-02-05T16:43:55.021Z,-1.10
2019-02-05T16:45:30.895Z,-1.20
2019-02-05T16:47:05.259Z,-1.10
2019-02-05T16:48:39.661Z,-1.20
2019-02-05T16:50:16.820Z,-1.20
2019-02-05T16:51:51.196Z,-1.20
2019-02-05T16:53:25.965Z,-1.20
2019-02-05T16:55:00.594Z,-1.30
2019-02-05T16:56:34.961Z,-1.30
2019-02-05T16:58:09.329Z,-1.30
2019-02-05T16:59:43.704Z,-1.30
2019-02-05T17:01:18.105Z,-1.30
2019-02-05T17:02:52.646Z,-1.30
2019-02-05T17:04:27.034Z,-1.30
2019-02-05T17:06:01.472Z,-1.30
2019-02-05T17:07:36.209Z,-1.40
2019-02-05T17:09:14.626Z,-1.40
2019-02-05T17:10:49.000Z,-1.40
2019-02-05T17:12:23.468Z,-1.40
2019-02-05T17:13:57.913Z,-1.50
2019-02-05T17:15:32.289Z,-1.50
2019-02-05T17:17:06.667Z,-1.50
2019-02-05T17:18:41.086Z,-1.50
2019-02-05T17:20:21.288Z,-1.60
2019-02-05T17:21:55.665Z,-1.60
2019-02-05T17:23:30.039Z,-1.60
2019-02-05T17:25:06.784Z,-1.60
2019-02-05T17:26:42.673Z,-1.60
2019-02-05T17:28:17.044Z,-1.70
2019-02-05T17:29:52.931Z,-1.70
2019-02-05T17:31:27.780Z,-1.70
2019-02-05T17:33:02.278Z,-1.80
2019-02-05T17:34:36.657Z,-1.80
2019-02-05T17:36:11.036Z,-1.80
2019-02-05T17:37:45.420Z,-1.90
2019-02-05T17:39:19.785Z,-1.90
2019-02-05T17:40:54.684Z,-1.90
2019-02-05T17:42:29.333Z,-2.00
2019-02-05T17:44:04.055Z,-2.00
2019-02-05T17:45:40.235Z,-1.90
2019-02-05T17:47:14.605Z,-2.00
2019-02-05T17:48:49.013Z,-1.90
2019-02-05T17:50:23.397Z,-2.00
2019-02-05T17:51:57.770Z,-2.00
2019-02-05T17:53:32.146Z,-2.00
2019-02-05T17:55:09.671Z,-2.10
2019-02-05T17:56:44.350Z,-2.10
2019-02-05T17:58:18.825Z,-2.10
2019-02-05T17:59:53.640Z,-2.10
2019-02-05T18:01:29.849Z,-2.10
2019-02-05T18:03:04.489Z,-2.10
2019-02-05T18:04:38.932Z,-2.10
2019-02-05T18:06:13.323Z,-2.20
2019-02-05T18:07:47.825Z,-2.20
2019-02-05T18:09:22.508Z,-2.20
2019-02-05T18:10:56.892Z,-2.20
2019-02-05T18:12:31.296Z,-2.20
2019-02-05T18:14:05.685Z,-2.30
2019-02-05T18:15:41.788Z,-2.30
2019-02-05T18:17:16.201Z,-2.30
2019-02-05T18:18:50.590Z,-2.30
2019-02-05T18:20:25.123Z,-2.30
2019-02-05T18:21:59.830Z,-2.40
2019-02-05T18:23:34.217Z,-2.40
2019-02-05T18:25:11.548Z,-2.50
2019-02-05T18:26:47.344Z,-2.40
2019-02-05T18:28:21.672Z,-2.50
2019-02-05T18:29:57.557Z,-2.50
2019-02-05T18:31:31.932Z,-2.50
2019-02-05T18:33:07.045Z,-2.50
2019-02-05T18:34:41.465Z,-2.60
2019-02-05T18:36:15.856Z,-2.60
2019-02-05T18:37:50.227Z,-2.60
2019-02-05T18:39:24.601Z,-2.60
2019-02-05T18:40:58.981Z,-2.60
2019-02-05T18:42:33.366Z,-2.70
2019-02-05T18:44:07.737Z,-2.70
2019-02-05T18:45:43.621Z,-2.70
2019-02-05T18:47:18.114Z,-2.80
2019-02-05T18:48:52.505Z,-2.80
2019-02-05T18:50:49.550Z,-2.80
2019-02-05T18:52:23.953Z,-2.80
2019-02-05T18:53:58.328Z,-2.80
2019-02-05T18:55:35.782Z,-2.80
2019-02-05T18:57:10.158Z,-2.80
2019-02-05T18:58:44.988Z,-2.80
2019-02-05T19:00:27.630Z,-2.80
2019-02-05T19:02:02.025Z,-2.80
2019-02-05T19:03:36.405Z,-2.80
2019-02-05T19:05:11.441Z,-2.80
2019-02-05T19:06:46.232Z,-2.80
2019-02-05T19:08:20.610Z,-2.80
2019-02-05T19:09:55.070Z,-2.70
2019-02-05T19:11:29.445Z,-2.70
2019-02-05T19:13:03.828Z,-2.60
2019-02-05T19:14:38.229Z,-2.60
2019-02-05T19:16:12.604Z,-2.60
2019-02-05T19:17:47.056Z,-2.50
2019-02-05T19:19:21.447Z,-2.50
2019-02-05T19:20:55.830Z,-2.50
2019-02-05T19:22:30.377Z,-2.40
2019-02-05T19:24:06.963Z,-2.40
2019-02-05T19:25:43.049Z,-2.40
2019-02-05T19:27:17.442Z,-2.40
2019-02-05T19:28:51.817Z,-2.30
2019-02-05T19:30:27.832Z,-2.20
2019-02-05T19:32:02.620Z,-2.20
2019-02-05T19:33:37.010Z,-2.10
2019-02-05T19:35:11.385Z,-2.00
2019-02-05T19:36:45.756Z,-2.00
2019-02-05T19:38:20.697Z,-2.00
2019-02-05T19:39:55.089Z,-1.90
2019-02-05T19:41:29.469Z,-1.80
2019-02-05T19:43:03.854Z,-1.70
2019-02-05T19:44:39.819Z,-1.70
2019-02-05T19:46:15.830Z,-1.60
2019-02-05T19:47:50.367Z,-1.60
2019-02-05T19:49:26.097Z,-1.60
2019-02-05T19:51:00.471Z,-1.50
2019-02-05T19:52:34.905Z,-1.50
2019-02-05T19:54:09.306Z,-1.50
2019-02-05T19:55:43.768Z,-1.40
2019-02-05T19:57:19.761Z,-1.40
2019-02-05T19:58:54.525Z,-1.40
2019-02-05T20:00:28.896Z,-1.40
2019-02-05T20:02:03.270Z,-1.40
2019-02-05T20:03:39.029Z,-1.40
2019-02-05T20:05:15.089Z,-1.40
2019-02-05T20:06:49.460Z,-1.40
2019-02-05T20:08:26.668Z,-1.30
2019-02-05T20:09:59.830Z,-1.30
2019-02-05T20:11:36.041Z,-1.30
2019-02-05T20:13:11.087Z,-1.30
2019-02-05T20:14:45.670Z,-1.30
2019-02-05T20:16:20.036Z,-1.30
2019-02-05T20:17:54.444Z,-1.30
2019-02-05T20:19:28.749Z,-1.30
2019-02-05T20:21:04.629Z,-1.30
2019-02-05T20:22:39.001Z,-1.30
2019-02-05T20:24:13.869Z,-1.30
2019-02-05T20:25:48.229Z,-1.20
2019-02-05T20:27:22.617Z,-1.20
2019-02-05T20:28:56.985Z,-1.20
2019-02-05T20:30:31.357Z,-1.10
2019-02-05T20:32:05.726Z,-1.10
2019-02-05T20:33:49.734Z,-1.10
2019-02-05T20:35:16.272Z,-1.10
2019-02-05T20:36:50.632Z,-1.10
2019-02-05T20:38:25.469Z,-1.00
2019-02-05T20:39:59.840Z,-1.00
2019-02-05T20:41:34.729Z,-1.00
2019-02-05T20:43:09.291Z,-1.00
2019-02-05T20:44:43.656Z,-1.00
2019-02-05T20:46:18.061Z,-1.00
2019-02-05T20:47:56.090Z,-1.00
2019-02-05T20:49:29.936Z,-0.90